createdAt,value
2018-06-19T00:00:31.431Z,53.87
2018-06-19T00:03:00.571Z,46.47
2018-06-19T00:05:30.838Z,142.90
2018-06-19T00:08:01.402Z,177.30
2018-06-19T00:10:30.687Z,225.87
2018-06-19T00:12:59.405Z,231.20
2018-06-19T00:15:28.183Z,119.50
2018-06-19T00:18:02.122Z,59.80
2018-06-19T00:20:30.965Z,120.40
2018-06-19T00:22:59.693Z,101.27
2018-06-19T00:25:28.416Z,226.97
2018-06-19T00:27:57.246Z,113.43
2018-06-19T00:30:25.980Z,190.77
2018-06-19T00:32:54.722Z,246.63
2018-06-19T00:35:23.470Z,87.73
2018-06-19T00:37:52.225Z,90.87
2018-06-19T00:40:20.954Z,288.23
2018-06-19T00:42:49.681Z,23.47
2018-06-19T00:45:18.412Z,15.70
2018-06-19T00:47:47.158Z,27.93
2018-06-19T00:50:15.889Z,28.47
2018-06-19T00:52:44.642Z,36.70
2018-06-19T00:55:13.394Z,50.93
2018-06-19T00:57:42.133Z,39.40
2018-06-19T01:00:10.865Z,29.30
2018-06-19T01:02:39.595Z,24.33
2018-06-19T01:05:08.371Z,19.53
2018-06-19T01:07:37.105Z,16.97
2018-06-19T01:10:05.834Z,15.13
2018-06-19T01:12:34.561Z,26.40
2018-06-19T01:15:03.313Z,21.43
2018-06-19T01:17:32.037Z,18.50
2018-06-19T01:20:00.728Z,49.23
2018-06-19T01:22:29.465Z,18.70
2018-06-19T01:24:58.166Z,19.93
2018-06-19T01:27:26.902Z,25.13
2018-06-19T01:29:55.612Z,39.63
2018-06-19T01:32:24.317Z,15.93
2018-06-19T01:34:53.072Z,24.70
2018-06-19T01:37:21.799Z,55.50
2018-06-19T01:39:50.548Z,33.00
2018-06-19T01:42:19.256Z,44.07
2018-06-19T01:44:48.134Z,52.07
2018-06-19T01:47:16.845Z,36.07
2018-06-19T01:49:45.541Z,20.77
2018-06-19T01:52:14.287Z,58.37
2018-06-19T01:54:43.004Z,68.63
2018-06-19T01:57:11.765Z,21.63
2018-06-19T01:59:40.657Z,21.67
2018-06-19T02:02:09.385Z,26.40
2018-06-19T02:04:38.281Z,38.83
2018-06-19T02:07:07.150Z,19.67
2018-06-19T02:09:35.858Z,13.30
2018-06-19T02:12:04.564Z,10.80
2018-06-19T02:14:33.286Z,12.33
2018-06-19T02:17:02.144Z,15.40
2018-06-19T02:19:30.845Z,9.70
2018-06-19T02:21:59.566Z,19.17
2018-06-19T02:24:28.305Z,11.77
2018-06-19T02:26:57.037Z,13.60
2018-06-19T02:29:25.822Z,10.90
2018-06-19T02:31:54.573Z,11.17
2018-06-19T02:34:23.320Z,10.00
2018-06-19T02:36:52.040Z,12.23
2018-06-19T02:39:20.749Z,10.03
2018-06-19T02:41:49.523Z,16.53
2018-06-19T02:44:18.250Z,11.00
2018-06-19T02:46:47.041Z,23.70
2018-06-19T02:49:15.810Z,11.43
2018-06-19T02:51:44.707Z,15.00
2018-06-19T02:54:13.485Z,12.33
2018-06-19T02:56:42.237Z,9.97
2018-06-19T02:59:10.950Z,13.77
2018-06-19T03:01:39.739Z,15.27
2018-06-19T03:04:08.462Z,9.00
2018-06-19T03:06:37.214Z,18.10
2018-06-19T03:09:08.397Z,13.90
2018-06-19T03:11:37.248Z,16.27
2018-06-19T03:14:06.324Z,21.60
2018-06-19T03:16:35.041Z,19.53
2018-06-19T03:19:04.019Z,17.10
2018-06-19T03:21:33.066Z,13.10
2018-06-19T03:24:01.787Z,20.43
2018-06-19T03:26:30.458Z,8.30
2018-06-19T03:28:59.145Z,21.90
2018-06-19T03:31:27.840Z,11.03
2018-06-19T03:33:56.567Z,10.47
2018-06-19T03:36:30.509Z,29.57
2018-06-19T03:38:59.234Z,27.03
2018-06-19T03:41:27.955Z,56.73
2018-06-19T03:43:56.675Z,90.97
2018-06-19T03:46:25.401Z,96.97
2018-06-19T03:48:54.147Z,160.27
2018-06-19T03:51:22.845Z,61.30
2018-06-19T03:53:51.659Z,329.40
2018-06-19T03:56:20.358Z,66.73
2018-06-19T03:58:49.169Z,186.37
2018-06-19T04:01:18.198Z,200.67
2018-06-19T04:03:46.889Z,253.87
2018-06-19T04:06:15.602Z,152.93
2018-06-19T04:08:44.286Z,109.97
2018-06-19T04:11:13.016Z,73.10
2018-06-19T04:13:41.748Z,84.40
2018-06-19T04:16:10.470Z,67.13
2018-06-19T04:18:39.205Z,44.90
2018-06-19T04:21:07.925Z,60.30
2018-06-19T04:23:36.717Z,64.43
2018-06-19T04:26:05.610Z,59.13
2018-06-19T04:28:34.320Z,60.17
2018-06-19T04:31:03.193Z,44.03
2018-06-19T04:33:31.931Z,62.40
2018-06-19T04:36:00.691Z,63.80
2018-06-19T04:38:29.403Z,24.83
2018-06-19T04:40:58.121Z,53.37
2018-06-19T04:43:26.856Z,32.43
2018-06-19T04:45:55.571Z,38.37
2018-06-19T04:48:24.309Z,34.93
2018-06-19T04:50:53.068Z,58.27
2018-06-19T04:53:21.790Z,54.60
2018-06-19T04:55:50.795Z,33.43
2018-06-19T04:58:19.590Z,35.20
2018-06-19T05:00:48.297Z,38.50
2018-06-19T05:03:17.008Z,46.77
2018-06-19T05:05:45.774Z,18.33
2018-06-19T05:08:14.493Z,16.97
2018-06-19T05:10:43.246Z,18.10
2018-06-19T05:13:11.954Z,27.57
2018-06-19T05:15:40.671Z,9.93
2018-06-19T05:18:09.366Z,12.90
2018-06-19T05:20:38.133Z,9.30
2018-06-19T05:23:06.910Z,11.90
2018-06-19T05:25:35.640Z,21.90
2018-06-19T05:28:04.501Z,12.53
2018-06-19T05:30:33.267Z,6.03
2018-06-19T05:33:02.002Z,6.73
2018-06-19T05:35:30.717Z,14.87
2018-06-19T05:37:59.470Z,10.30
2018-06-19T05:40:28.279Z,4.87
2018-06-19T05:42:57.009Z,10.50
2018-06-19T05:45:25.893Z,14.53
2018-06-19T05:47:54.603Z,5.10
2018-06-19T05:50:23.356Z,4.90
2018-06-19T05:52:52.146Z,5.23
2018-06-19T05:55:20.890Z,8.27
2018-06-19T05:57:49.634Z,8.67
2018-06-19T06:00:18.343Z,7.30
2018-06-19T06:02:47.049Z,2.73
2018-06-19T06:05:15.794Z,3.27
2018-06-19T06:07:44.498Z,3.53
2018-06-19T06:10:13.297Z,8.63
2018-06-19T06:12:42.013Z,11.33
2018-06-19T06:15:10.713Z,7.57
2018-06-19T06:17:39.458Z,15.40
2018-06-19T06:20:08.248Z,7.80
2018-06-19T06:22:37.031Z,13.50
2018-06-19T06:25:05.766Z,9.10
2018-06-19T06:27:34.449Z,10.53
2018-06-19T06:30:03.162Z,6.80
2018-06-19T06:32:31.865Z,7.10
2018-06-19T06:35:00.564Z,6.85
2018-06-19T06:37:29.261Z,9.53
2018-06-19T06:39:58.153Z,8.90
2018-06-19T06:42:26.929Z,4.30
2018-06-19T06:44:55.677Z,2.05
2018-06-19T06:47:24.366Z,11.07
2018-06-19T06:49:53.129Z,3.93
2018-06-19T06:52:21.859Z,3.50
2018-06-19T06:54:50.558Z,2.40
2018-06-19T06:57:19.260Z,7.20
2018-06-19T06:59:47.963Z,7.97
2018-06-19T07:02:16.757Z,7.27
2018-06-19T07:04:45.453Z,10.90
2018-06-19T07:07:14.145Z,3.57
2018-06-19T07:09:42.832Z,3.47
2018-06-19T07:12:11.661Z,7.47
2018-06-19T07:14:40.373Z,9.33
2018-06-19T07:17:09.277Z,5.27
2018-06-19T07:19:38.081Z,7.33
2018-06-19T07:22:06.350Z,4.37
2018-06-19T07:24:35.047Z,5.40
2018-06-19T07:27:03.781Z,5.33
2018-06-19T07:29:32.486Z,8.07
2018-06-19T07:32:01.418Z,6.10
2018-06-19T07:34:30.167Z,7.10
2018-06-19T07:36:58.905Z,7.90
2018-06-19T07:39:27.666Z,5.70
2018-06-19T07:41:56.566Z,9.33
2018-06-19T07:44:25.357Z,10.20
2018-06-19T07:46:54.082Z,11.37
2018-06-19T07:49:23.249Z,7.20
2018-06-19T07:51:51.956Z,5.80
2018-06-19T07:54:20.683Z,16.87
2018-06-19T07:56:49.442Z,8.37
2018-06-19T07:59:18.154Z,4.93
2018-06-19T08:01:47.253Z,4.13
2018-06-19T08:04:15.986Z,7.60
2018-06-19T08:06:44.670Z,10.23
2018-06-19T08:09:13.486Z,12.53
2018-06-19T08:11:42.169Z,5.60
2018-06-19T08:14:10.888Z,13.63
2018-06-19T08:16:39.640Z,9.43
2018-06-19T08:19:08.358Z,7.17
2018-06-19T08:21:37.091Z,6.97
2018-06-19T08:24:05.798Z,7.00
2018-06-19T08:26:34.515Z,16.83
2018-06-19T08:29:03.255Z,5.63
2018-06-19T08:31:31.992Z,7.43
2018-06-19T08:34:00.678Z,6.77
2018-06-19T08:36:29.377Z,6.43
2018-06-19T08:38:58.074Z,4.10
2018-06-19T08:41:26.814Z,14.03
2018-06-19T08:43:55.501Z,4.10
2018-06-19T08:46:24.202Z,7.83
2018-06-19T08:48:52.904Z,9.80
2018-06-19T08:51:21.839Z,10.80
2018-06-19T08:53:50.614Z,6.90
2018-06-19T08:56:19.370Z,7.93
2018-06-19T08:58:48.079Z,6.13
2018-06-19T09:01:16.814Z,4.53
2018-06-19T09:03:45.534Z,5.20
2018-06-19T09:06:14.499Z,4.17
2018-06-19T09:08:43.234Z,4.78
2018-06-19T09:11:11.925Z,6.40
2018-06-19T09:13:40.629Z,6.80
2018-06-19T09:16:09.352Z,5.67
2018-06-19T09:18:38.312Z,8.37
2018-06-19T09:21:08.318Z,6.20
2018-06-19T09:23:37.427Z,24.43
2018-06-19T09:26:06.642Z,18.00
2018-06-19T09:28:35.471Z,12.00
2018-06-19T09:31:04.242Z,10.10
2018-06-19T09:33:32.988Z,13.20
2018-06-19T09:36:01.687Z,15.00
2018-06-19T09:38:30.511Z,14.00
2018-06-19T09:40:59.234Z,6.73
2018-06-19T09:43:27.954Z,6.23
2018-06-19T09:45:56.791Z,5.53
2018-06-19T09:48:25.518Z,5.33
2018-06-19T09:50:54.241Z,3.80
2018-06-19T09:53:23.013Z,6.30
2018-06-19T09:55:51.753Z,4.97
2018-06-19T09:58:20.493Z,9.40
2018-06-19T10:00:49.221Z,10.77
2018-06-19T10:03:17.912Z,7.27
2018-06-19T10:05:46.749Z,4.90
2018-06-19T10:08:15.449Z,12.70
2018-06-19T10:10:44.137Z,14.63
2018-06-19T10:13:12.833Z,16.75
2018-06-19T10:15:41.545Z,11.22
2018-06-19T10:18:10.237Z,5.97
2018-06-19T10:20:39.037Z,8.28
2018-06-19T10:23:07.887Z,4.35
2018-06-19T10:25:36.594Z,32.08
2018-06-19T10:28:05.396Z,13.32
2018-06-19T10:30:34.085Z,6.50
2018-06-19T10:33:02.902Z,5.85
2018-06-19T10:35:31.597Z,4.22
2018-06-19T10:38:00.291Z,27.77
2018-06-19T10:40:28.998Z,12.30
2018-06-19T10:42:57.710Z,12.45
2018-06-19T10:45:26.409Z,11.15
2018-06-19T10:47:55.149Z,5.55
2018-06-19T10:50:23.913Z,3.50
2018-06-19T10:52:52.625Z,4.62
2018-06-19T10:55:21.358Z,6.60
2018-06-19T10:57:50.053Z,6.95
2018-06-19T11:00:19.217Z,2.67
2018-06-19T11:02:48.404Z,3.30
2018-06-19T11:05:17.122Z,12.90
2018-06-19T11:07:45.856Z,3.80
2018-06-19T11:10:14.621Z,6.25
2018-06-19T11:12:43.897Z,6.83
2018-06-19T11:15:12.661Z,3.83
2018-06-19T11:17:41.412Z,18.25
2018-06-19T11:20:10.269Z,3.92
2018-06-19T11:22:39.160Z,2.52
2018-06-19T11:25:08.019Z,9.80
2018-06-19T11:27:36.737Z,4.42
2018-06-19T11:30:05.767Z,9.18
2018-06-19T11:32:34.465Z,7.08
2018-06-19T11:35:03.202Z,6.30
2018-06-19T11:37:31.901Z,5.70
2018-06-19T11:40:00.594Z,4.30
2018-06-19T11:42:29.301Z,7.57
2018-06-19T11:44:58.031Z,3.50
2018-06-19T11:47:26.822Z,2.97
2018-06-19T11:49:55.525Z,10.43
2018-06-19T11:52:24.283Z,40.93
2018-06-19T11:54:53.243Z,12.60
2018-06-19T11:57:21.955Z,6.23
2018-06-19T11:59:50.683Z,4.97
2018-06-19T12:02:19.463Z,6.62
2018-06-19T12:04:48.217Z,2.95
2018-06-19T12:07:16.942Z,4.08
2018-06-19T12:09:45.652Z,17.27
2018-06-19T12:12:14.390Z,3.12
2018-06-19T12:14:45.045Z,7.28
2018-06-19T12:17:14.813Z,13.78
2018-06-19T12:19:43.570Z,17.75
2018-06-19T12:22:12.274Z,4.75
2018-06-19T12:24:40.987Z,23.05
2018-06-19T12:27:09.678Z,2.87
2018-06-19T12:29:38.442Z,10.50
2018-06-19T12:32:07.155Z,6.07
2018-06-19T12:34:35.874Z,3.33
2018-06-19T12:37:04.567Z,8.77
2018-06-19T12:39:33.282Z,8.20
2018-06-19T12:42:02.022Z,19.60
2018-06-19T12:44:30.717Z,6.40
2018-06-19T12:46:59.433Z,17.07
2018-06-19T12:49:39.242Z,5.40
2018-06-19T12:52:19.868Z,26.27
2018-06-19T12:55:57.322Z,8.07
2018-06-19T12:58:26.021Z,10.60
2018-06-19T13:00:54.715Z,5.20
2018-06-19T13:03:34.473Z,11.60
2018-06-19T13:06:14.156Z,5.00
2018-06-19T13:08:42.873Z,11.73
2018-06-19T13:11:11.576Z,6.40
2018-06-19T13:13:51.371Z,4.40
2018-06-19T13:16:31.145Z,3.83
2018-06-19T13:19:10.970Z,26.77
2018-06-19T13:21:39.689Z,14.07
2018-06-19T13:24:08.432Z,4.30
2018-06-19T13:26:37.137Z,5.67
2018-06-19T13:29:45.253Z,5.27
2018-06-19T13:32:14.022Z,8.47
2018-06-19T13:34:42.799Z,6.27
2018-06-19T13:37:11.533Z,4.60
2018-06-19T13:39:40.853Z,10.90
2018-06-19T13:42:22.098Z,13.33
2018-06-19T13:44:59.968Z,15.87
2018-06-19T13:47:28.696Z,4.07
2018-06-19T13:49:57.406Z,3.27
2018-06-19T13:52:27.009Z,3.80
2018-06-19T13:56:08.002Z,4.23
2018-06-19T13:58:37.582Z,16.97
2018-06-19T14:01:06.699Z,6.37
2018-06-19T14:03:35.494Z,9.33
2018-06-19T14:06:04.196Z,6.53
2018-06-19T14:08:45.892Z,14.97
2018-06-19T14:11:25.947Z,3.80
2018-06-19T14:13:54.670Z,10.87
2018-06-19T14:16:23.391Z,7.50
2018-06-19T14:18:52.116Z,4.40
2018-06-19T14:21:20.881Z,13.50
2018-06-19T14:23:49.573Z,75.70
2018-06-19T14:26:18.273Z,31.57
2018-06-19T14:28:47.021Z,10.33
2018-06-19T14:31:15.742Z,10.93
2018-06-19T14:33:44.489Z,10.63
2018-06-19T14:36:13.197Z,12.43
2018-06-19T14:38:41.932Z,8.70
2018-06-19T14:41:10.654Z,9.20
2018-06-19T14:43:39.413Z,5.70
2018-06-19T14:46:08.133Z,4.10
2018-06-19T14:48:36.842Z,63.83
2018-06-19T14:51:05.701Z,21.17
2018-06-19T14:53:34.485Z,17.27
2018-06-19T14:56:03.310Z,9.93
2018-06-19T14:58:32.019Z,29.83
2018-06-19T15:01:00.800Z,8.33
2018-06-19T15:03:29.506Z,11.07
2018-06-19T15:05:58.429Z,16.77
2018-06-19T15:08:27.165Z,8.20
2018-06-19T15:10:55.924Z,17.17
2018-06-19T15:13:24.631Z,10.60
2018-06-19T15:15:53.351Z,16.53
2018-06-19T15:18:22.144Z,19.30
2018-06-19T15:20:50.924Z,14.27
2018-06-19T15:23:19.646Z,35.77
2018-06-19T15:25:48.371Z,35.07
2018-06-19T15:28:17.123Z,7.60
2018-06-19T15:30:45.872Z,14.87
2018-06-19T15:33:14.733Z,9.60
2018-06-19T15:35:43.446Z,14.20
2018-06-19T15:38:12.141Z,30.43
2018-06-19T15:40:40.861Z,35.93
2018-06-19T15:43:09.613Z,19.93
2018-06-19T15:45:38.343Z,15.10
2018-06-19T15:48:07.087Z,18.17
2018-06-19T15:50:35.788Z,11.73
2018-06-19T15:53:04.647Z,4.43
2018-06-19T15:55:33.361Z,37.50
2018-06-19T15:58:02.261Z,25.87
2018-06-19T16:00:31.107Z,49.53
2018-06-19T16:03:00.024Z,38.73
2018-06-19T16:05:28.822Z,15.20
2018-06-19T16:08:02.672Z,9.87
2018-06-19T16:10:31.539Z,16.63
2018-06-19T16:13:00.238Z,24.53
2018-06-19T16:15:28.982Z,17.03
2018-06-19T16:17:57.676Z,22.00
2018-06-19T16:20:26.423Z,19.33
2018-06-19T16:22:55.157Z,19.37
2018-06-19T16:25:23.869Z,11.83
2018-06-19T16:27:52.553Z,16.80
2018-06-19T16:30:21.271Z,16.63
2018-06-19T16:32:49.999Z,31.57
2018-06-19T16:35:18.750Z,22.50
2018-06-19T16:37:47.505Z,10.77
2018-06-19T16:40:16.282Z,6.47
2018-06-19T16:42:45.020Z,18.43
2018-06-19T16:45:13.734Z,11.67
2018-06-19T16:47:42.454Z,16.33
2018-06-19T16:50:11.185Z,10.53
2018-06-19T16:52:39.986Z,13.80
2018-06-19T16:55:08.722Z,12.80
2018-06-19T16:57:37.472Z,26.60
2018-06-19T17:00:07.163Z,32.50
2018-06-19T17:02:35.901Z,45.03
2018-06-19T17:05:04.613Z,42.00
2018-06-19T17:07:33.332Z,13.70
2018-06-19T17:10:02.038Z,27.23
2018-06-19T17:12:30.822Z,36.90
2018-06-19T17:14:59.538Z,27.43
2018-06-19T17:17:28.298Z,18.90
2018-06-19T17:19:57.275Z,15.00
2018-06-19T17:22:26.010Z,14.00
2018-06-19T17:24:54.727Z,20.03
2018-06-19T17:27:23.481Z,23.17
2018-06-19T17:29:52.166Z,6.83
2018-06-19T17:32:21.015Z,10.37
2018-06-19T17:34:49.725Z,18.60
2018-06-19T17:37:18.622Z,6.80
2018-06-19T17:39:47.346Z,10.47
2018-06-19T17:42:21.500Z,12.43
2018-06-19T17:44:50.355Z,25.33
2018-06-19T17:47:19.137Z,36.33
2018-06-19T17:49:47.829Z,13.07
2018-06-19T17:52:16.584Z,9.30
2018-06-19T17:54:45.416Z,8.80
2018-06-19T17:57:14.184Z,33.03
2018-06-19T17:59:43.530Z,12.23
2018-06-19T18:02:12.481Z,18.57
2018-06-19T18:04:41.423Z,36.47
2018-06-19T18:07:10.301Z,14.07
2018-06-19T18:09:39.071Z,8.80
2018-06-19T18:12:07.796Z,19.73
2018-06-19T18:14:36.514Z,9.17
2018-06-19T18:17:05.485Z,23.87
2018-06-19T18:19:34.571Z,22.37
2018-06-19T18:22:05.243Z,15.80
2018-06-19T18:24:37.170Z,22.10
2018-06-19T18:27:12.816Z,11.70
2018-06-19T18:29:48.137Z,23.23
2018-06-19T18:32:21.788Z,19.47
2018-06-19T18:34:56.264Z,23.33
2018-06-19T18:37:31.507Z,23.67
2018-06-19T18:40:00.938Z,32.83
2018-06-19T18:42:31.983Z,24.73
2018-06-19T18:45:01.371Z,18.60
2018-06-19T18:47:30.338Z,16.50
2018-06-19T18:49:59.208Z,18.10
2018-06-19T18:52:28.474Z,16.10
2018-06-19T18:54:57.363Z,18.43
2018-06-19T18:57:26.413Z,15.03
2018-06-19T18:59:55.550Z,15.43
2018-06-19T19:02:26.431Z,14.37
2018-06-19T19:04:55.578Z,33.67
2018-06-19T19:07:25.299Z,18.40
2018-06-19T19:10:00.686Z,30.87
2018-06-19T19:12:31.368Z,27.60
2018-06-19T19:15:06.697Z,30.23
2018-06-19T19:17:40.703Z,21.63
2018-06-19T19:20:10.253Z,34.50
2018-06-19T19:22:39.023Z,22.10
2018-06-19T19:25:07.811Z,21.97
2018-06-19T19:27:41.680Z,18.30
2018-06-19T19:30:10.994Z,15.93
2018-06-19T19:32:39.769Z,16.97
2018-06-19T19:35:08.525Z,20.93
2018-06-19T19:37:42.833Z,10.90
2018-06-19T19:40:12.018Z,14.73
2018-06-19T19:42:41.631Z,25.53
2018-06-19T19:45:11.625Z,20.47
2018-06-19T19:47:46.195Z,23.33
2018-06-19T19:50:15.115Z,26.33
2018-06-19T19:52:43.854Z,9.60
2018-06-19T19:55:12.603Z,67.33
2018-06-19T19:57:46.429Z,20.40
2018-06-19T20:00:19.269Z,33.33
2018-06-19T20:02:48.759Z,30.33
2018-06-19T20:05:17.475Z,16.13
2018-06-19T20:07:46.164Z,12.83
2018-06-19T20:10:15.131Z,19.80
2018-06-19T20:12:43.837Z,15.93
2018-06-19T20:15:13.374Z,22.80
2018-06-19T20:17:42.188Z,20.43
2018-06-19T20:20:11.863Z,11.50
2018-06-19T20:22:40.750Z,29.07
2018-06-19T20:25:09.909Z,42.33
2018-06-19T20:27:38.722Z,18.10
2018-06-19T20:30:08.579Z,26.97
2018-06-19T20:32:37.314Z,27.00
2018-06-19T20:35:06.068Z,15.70
2018-06-19T20:37:34.796Z,31.30
2018-06-19T20:40:03.542Z,30.93
2018-06-19T20:42:32.269Z,34.10
2018-06-19T20:45:01.202Z,17.43
2018-06-19T20:47:30.545Z,33.03
2018-06-19T20:49:59.599Z,21.50
2018-06-19T20:52:28.337Z,25.47
2018-06-19T20:54:57.087Z,24.93
2018-06-19T20:57:25.820Z,20.20
2018-06-19T20:59:54.553Z,12.30
2018-06-19T21:02:23.276Z,19.93
2018-06-19T21:04:52.050Z,21.30
2018-06-19T21:07:20.807Z,22.17
2018-06-19T21:09:49.524Z,27.97
2018-06-19T21:12:18.234Z,17.50
2018-06-19T21:14:46.968Z,26.93
2018-06-19T21:17:15.713Z,18.77
2018-06-19T21:19:44.439Z,17.60
2018-06-19T21:22:13.172Z,29.27
2018-06-19T21:24:41.895Z,26.73
2018-06-19T21:27:10.623Z,15.73
2018-06-19T21:29:39.357Z,14.53
2018-06-19T21:32:08.412Z,13.93
2018-06-19T21:34:37.190Z,18.67
2018-06-19T21:37:06.084Z,12.80
2018-06-19T21:39:34.819Z,26.40
2018-06-19T21:42:03.546Z,14.47
2018-06-19T21:44:32.269Z,24.17
2018-06-19T21:47:00.982Z,11.30
2018-06-19T21:49:29.718Z,24.13
2018-06-19T21:51:58.425Z,12.93
2018-06-19T21:54:27.164Z,20.00
2018-06-19T21:56:55.869Z,18.07
2018-06-19T21:59:24.575Z,22.43
2018-06-19T22:01:53.269Z,18.67
2018-06-19T22:04:21.961Z,35.73
2018-06-19T22:06:50.690Z,25.73
2018-06-19T22:09:19.405Z,12.20
2018-06-19T22:11:48.177Z,13.20
2018-06-19T22:14:16.917Z,22.53
2018-06-19T22:16:45.651Z,33.37
2018-06-19T22:19:14.353Z,32.07
2018-06-19T22:21:43.070Z,17.57
2018-06-19T22:24:11.794Z,30.17
2018-06-19T22:26:40.647Z,20.10
2018-06-19T22:29:09.333Z,21.93
2018-06-19T22:31:38.054Z,10.30
2018-06-19T22:34:06.798Z,27.07
2018-06-19T22:36:35.513Z,16.23
2018-06-19T22:39:05.957Z,41.03
2018-06-19T22:41:34.690Z,25.10
2018-06-19T22:44:03.440Z,33.87
2018-06-19T22:46:32.166Z,17.53
2018-06-19T22:49:01.062Z,18.57
2018-06-19T22:51:29.797Z,22.73
2018-06-19T22:53:58.535Z,15.17
2018-06-19T22:56:27.337Z,23.83
2018-06-19T22:58:56.073Z,28.73
2018-06-19T23:01:24.831Z,36.63
2018-06-19T23:03:53.602Z,25.73
2018-06-19T23:06:22.340Z,19.77
2018-06-19T23:08:51.187Z,43.33
2018-06-19T23:11:19.932Z,23.30
2018-06-19T23:13:48.634Z,22.37
2018-06-19T23:16:17.433Z,21.37
2018-06-19T23:18:46.157Z,40.03
2018-06-19T23:21:14.869Z,20.63
2018-06-19T23:23:43.565Z,21.83
2018-06-19T23:26:12.316Z,46.87
2018-06-19T23:28:41.054Z,29.83
2018-06-19T23:31:09.794Z,27.37
2018-06-19T23:33:38.603Z,26.30
2018-06-19T23:36:07.577Z,23.57
2018-06-19T23:38:36.402Z,37.37
2018-06-19T23:41:05.169Z,32.77
2018-06-19T23:43:33.881Z,21.10
2018-06-19T23:46:02.595Z,15.17
2018-06-19T23:48:31.300Z,27.83
2018-06-19T23:51:00.039Z,18.07
2018-06-19T23:53:28.770Z,20.30
2018-06-19T23:55:57.474Z,19.93
2018-06-19T23:58:26.223Z,14.50
